sensor_id;sensor_type;location;lat;lon;timestamp;P1;durP1;ratioP1;P2;durP2;ratioP2
6463;SDS011;3265;42.694;23.282;2023-05-18T00:02:17;8.27;;;3.60;;
6463;SDS011;3265;42.694;23.282;2023-05-18T00:04:45;5.47;;;3.23;;
6463;SDS011;3265;42.694;23.282;2023-05-18T00:07:13;3.77;;;3.10;;
6463;SDS011;3265;42.694;23.282;2023-05-18T00:09:40;4.63;;;2.50;;
6463;SDS011;3265;42.694;23.282;2023-05-18T00:12:07;5.70;;;2.83;;
6463;SDS011;3265;42.694;23.282;2023-05-18T00:14:34;3.00;;;2.70;;
6463;SDS011;3265;42.694;23.282;2023-05-18T00:17:02;4.10;;;2.57;;
6463;SDS011;3265;42.694;23.282;2023-05-18T00:19:28;4.97;;;2.47;;
6463;SDS011;3265;42.694;23.282;2023-05-18T00:21:58;4.13;;;2.70;;
6463;SDS011;3265;42.694;23.282;2023-05-18T00:24:27;6.47;;;3.00;;
6463;SDS011;3265;42.694;23.282;2023-05-18T00:26:54;5.07;;;2.87;;
6463;SDS011;3265;42.694;23.282;2023-05-18T00:29:21;3.23;;;2.87;;
6463;SDS011;3265;42.694;23.282;2023-05-18T00:31:48;3.00;;;2.50;;
6463;SDS011;3265;42.694;23.282;2023-05-18T00:34:15;3.17;;;2.40;;
6463;SDS011;3265;42.694;23.282;2023-05-18T00:36:42;6.67;;;2.70;;
6463;SDS011;3265;42.694;23.282;2023-05-18T00:39:09;2.43;;;2.10;;
6463;SDS011;3265;42.694;23.282;2023-05-18T00:41:37;5.50;;;2.43;;
6463;SDS011;3265;42.694;23.282;2023-05-18T00:44:04;3.27;;;2.30;;
6463;SDS011;3265;42.694;23.282;2023-05-18T00:46:31;2.63;;;1.90;;
6463;SDS011;3265;42.694;23.282;2023-05-18T00:48:58;3.17;;;2.00;;
6463;SDS011;3265;42.694;23.282;2023-05-18T00:51:26;3.80;;;1.73;;
6463;SDS011;3265;42.694;23.282;2023-05-18T00:53:54;2.10;;;1.70;;
6463;SDS011;3265;42.694;23.282;2023-05-18T00:56:22;2.00;;;1.57;;
6463;SDS011;3265;42.694;23.282;2023-05-18T00:58:51;1.77;;;1.40;;
6463;SDS011;3265;42.694;23.282;2023-05-18T01:01:22;3.60;;;1.77;;
6463;SDS011;3265;42.694;23.282;2023-05-18T01:03:53;2.50;;;2.30;;
6463;SDS011;3265;42.694;23.282;2023-05-18T01:06:21;3.93;;;2.30;;
6463;SDS011;3265;42.694;23.282;2023-05-18T01:08:49;5.53;;;2.53;;
6463;SDS011;3265;42.694;23.282;2023-05-18T01:11:18;3.93;;;2.60;;
6463;SDS011;3265;42.694;23.282;2023-05-18T01:13:55;4.67;;;2.40;;
6463;SDS011;3265;42.694;23.282;2023-05-18T01:16:29;3.90;;;2.60;;
6463;SDS011;3265;42.694;23.282;2023-05-18T01:19:02;4.73;;;2.53;;
6463;SDS011;3265;42.694;23.282;2023-05-18T01:22:00;3.67;;;2.63;;
6463;SDS011;3265;42.694;23.282;2023-05-18T01:24:48;6.00;;;3.07;;
6463;SDS011;3265;42.694;23.282;2023-05-18T01:27:34;6.60;;;3.40;;
6463;SDS011;3265;42.694;23.282;2023-05-18T01:30:07;5.43;;;3.30;;
6463;SDS011;3265;42.694;23.282;2023-05-18T01:32:38;7.20;;;3.03;;
6463;SDS011;3265;42.694;23.282;2023-05-18T01:35:05;6.00;;;3.20;;
6463;SDS011;3265;42.694;23.282;2023-05-18T01:37:32;5.10;;;2.73;;
6463;SDS011;3265;42.694;23.282;2023-05-18T01:39:59;3.40;;;2.10;;
6463;SDS011;3265;42.694;23.282;2023-05-18T01:42:29;2.50;;;2.20;;
6463;SDS011;3265;42.694;23.282;2023-05-18T01:45:05;4.73;;;2.03;;
6463;SDS011;3265;42.694;23.282;2023-05-18T01:47:34;3.23;;;2.47;;
6463;SDS011;3265;42.694;23.282;2023-05-18T01:50:07;2.33;;;2.10;;
6463;SDS011;3265;42.694;23.282;2023-05-18T01:52:40;2.70;;;2.40;;
6463;SDS011;3265;42.694;23.282;2023-05-18T01:55:10;2.97;;;2.63;;
6463;SDS011;3265;42.694;23.282;2023-05-18T01:57:41;3.43;;;2.70;;
6463;SDS011;3265;42.694;23.282;2023-05-18T02:00:11;4.57;;;3.10;;
6463;SDS011;3265;42.694;23.282;2023-05-18T02:02:40;5.57;;;4.57;;
6463;SDS011;3265;42.694;23.282;2023-05-18T02:05:07;19.53;;;15.10;;
6463;SDS011;3265;42.694;23.282;2023-05-18T02:07:36;26.27;;;20.20;;
6463;SDS011;3265;42.694;23.282;2023-05-18T02:10:03;24.97;;;18.53;;
6463;SDS011;3265;42.694;23.282;2023-05-18T02:12:31;11.73;;;8.63;;
6463;SDS011;3265;42.694;23.282;2023-05-18T02:14:59;12.63;;;9.10;;
6463;SDS011;3265;42.694;23.282;2023-05-18T02:17:29;9.80;;;7.83;;
6463;SDS011;3265;42.694;23.282;2023-05-18T02:19:57;5.90;;;5.07;;
6463;SDS011;3265;42.694;23.282;2023-05-18T02:22:24;7.77;;;5.17;;
6463;SDS011;3265;42.694;23.282;2023-05-18T02:24:51;5.27;;;4.33;;
6463;SDS011;3265;42.694;23.282;2023-05-18T02:27:18;3.90;;;3.50;;
6463;SDS011;3265;42.694;23.282;2023-05-18T02:29:44;5.23;;;3.53;;
6463;SDS011;3265;42.694;23.282;2023-05-18T02:32:13;5.03;;;2.33;;
6463;SDS011;3265;42.694;23.282;2023-05-18T02:34:39;3.40;;;2.37;;
6463;SDS011;3265;42.694;23.282;2023-05-18T02:37:07;4.00;;;2.83;;
6463;SDS011;3265;42.694;23.282;2023-05-18T02:39:34;4.80;;;2.70;;
6463;SDS011;3265;42.694;23.282;2023-05-18T02:42:01;3.73;;;2.40;;
6463;SDS011;3265;42.694;23.282;2023-05-18T02:44:28;3.70;;;2.40;;
6463;SDS011;3265;42.694;23.282;2023-05-18T02:46:55;3.33;;;2.33;;
6463;SDS011;3265;42.694;23.282;2023-05-18T02:49:23;3.20;;;2.60;;
6463;SDS011;3265;42.694;23.282;2023-05-18T02:51:49;4.60;;;2.40;;
6463;SDS011;3265;42.694;23.282;2023-05-18T02:54:16;2.87;;;2.43;;
6463;SDS011;3265;42.694;23.282;2023-05-18T02:56:43;3.13;;;2.53;;
6463;SDS011;3265;42.694;23.282;2023-05-18T02:59:10;4.83;;;2.80;;
6463;SDS011;3265;42.694;23.282;2023-05-18T03:01:37;4.17;;;2.50;;
6463;SDS011;3265;42.694;23.282;2023-05-18T03:04:05;5.13;;;2.70;;
6463;SDS011;3265;42.694;23.282;2023-05-18T03:06:33;3.77;;;2.57;;
6463;SDS011;3265;42.694;23.282;2023-05-18T03:09:00;2.67;;;2.20;;
6463;SDS011;3265;42.694;23.282;2023-05-18T03:11:27;2.53;;;2.30;;
6463;SDS011;3265;42.694;23.282;2023-05-18T03:13:53;2.47;;;2.27;;
6463;SDS011;3265;42.694;23.282;2023-05-18T03:16:20;3.50;;;2.93;;
6463;SDS011;3265;42.694;23.282;2023-05-18T03:18:52;3.00;;;2.70;;
6463;SDS011;3265;42.694;23.282;2023-05-18T03:21:19;5.53;;;3.10;;
6463;SDS011;3265;42.694;23.282;2023-05-18T03:23:47;3.83;;;3.10;;
6463;SDS011;3265;42.694;23.282;2023-05-18T03:26:14;4.63;;;3.30;;
6463;SDS011;3265;42.694;23.282;2023-05-18T03:28:41;6.00;;;3.50;;
6463;SDS011;3265;42.694;23.282;2023-05-18T03:31:07;6.70;;;3.80;;
6463;SDS011;3265;42.694;23.282;2023-05-18T03:33:35;8.10;;;3.90;;
6463;SDS011;3265;42.694;23.282;2023-05-18T03:36:02;4.13;;;3.73;;
6463;SDS011;3265;42.694;23.282;2023-05-18T03:38:30;4.93;;;4.03;;
6463;SDS011;3265;42.694;23.282;2023-05-18T03:40:58;5.40;;;3.90;;
6463;SDS011;3265;42.694;23.282;2023-05-18T03:43:25;4.93;;;3.73;;
6463;SDS011;3265;42.694;23.282;2023-05-18T03:45:53;4.60;;;3.93;;
6463;SDS011;3265;42.694;23.282;2023-05-18T03:48:21;5.57;;;4.40;;
6463;SDS011;3265;42.694;23.282;2023-05-18T03:50:48;7.90;;;5.13;;
6463;SDS011;3265;42.694;23.282;2023-05-18T03:53:20;7.93;;;5.73;;
6463;SDS011;3265;42.694;23.282;2023-05-18T03:55:47;6.97;;;5.50;;
6463;SDS011;3265;42.694;23.282;2023-05-18T03:58:17;8.00;;;5.23;;
6463;SDS011;3265;42.694;23.282;2023-05-18T04:00:44;6.43;;;5.07;;
6463;SDS011;3265;42.694;23.282;2023-05-18T04:03:11;5.30;;;4.77;;
6463;SDS011;3265;42.694;23.282;2023-05-18T04:05:40;6.10;;;5.00;;
6463;SDS011;3265;42.694;23.282;2023-05-18T04:08:08;5.30;;;4.67;;
6463;SDS011;3265;42.694;23.282;2023-05-18T04:10:38;6.93;;;5.20;;
6463;SDS011;3265;42.694;23.282;2023-05-18T04:13:05;7.50;;;5.00;;
6463;SDS011;3265;42.694;23.282;2023-05-18T04:15:33;8.03;;;5.57;;
6463;SDS011;3265;42.694;23.282;2023-05-18T04:18:00;8.73;;;5.90;;
6463;SDS011;3265;42.694;23.282;2023-05-18T04:20:27;9.57;;;5.80;;
6463;SDS011;3265;42.694;23.282;2023-05-18T04:22:54;8.07;;;4.93;;
6463;SDS011;3265;42.694;23.282;2023-05-18T04:25:22;8.63;;;5.03;;
6463;SDS011;3265;42.694;23.282;2023-05-18T04:27:52;10.87;;;7.23;;
6463;SDS011;3265;42.694;23.282;2023-05-18T04:30:20;11.83;;;8.97;;
6463;SDS011;3265;42.694;23.282;2023-05-18T04:32:49;14.10;;;7.10;;
6463;SDS011;3265;42.694;23.282;2023-05-18T04:35:15;8.13;;;5.87;;
6463;SDS011;3265;42.694;23.282;2023-05-18T04:37:43;7.03;;;5.40;;
6463;SDS011;3265;42.694;23.282;2023-05-18T04:40:10;8.23;;;6.57;;
6463;SDS011;3265;42.694;23.282;2023-05-18T04:42:38;9.73;;;6.87;;
6463;SDS011;3265;42.694;23.282;2023-05-18T04:45:09;8.33;;;6.40;;
6463;SDS011;3265;42.694;23.282;2023-05-18T04:47:40;9.93;;;6.77;;
6463;SDS011;3265;42.694;23.282;2023-05-18T04:50:11;11.57;;;6.90;;
6463;SDS011;3265;42.694;23.282;2023-05-18T04:52:40;10.03;;;6.93;;
6463;SDS011;3265;42.694;23.282;2023-05-18T04:55:12;10.60;;;6.60;;
6463;SDS011;3265;42.694;23.282;2023-05-18T04:57:40;11.97;;;7.83;;
6463;SDS011;3265;42.694;23.282;2023-05-18T05:00:09;13.30;;;9.87;;
6463;SDS011;3265;42.694;23.282;2023-05-18T05:02:37;14.97;;;10.83;;
6463;SDS011;3265;42.694;23.282;2023-05-18T05:05:04;17.03;;;10.93;;
6463;SDS011;3265;42.694;23.282;2023-05-18T05:07:33;13.73;;;9.00;;
6463;SDS011;3265;42.694;23.282;2023-05-18T05:10:00;12.37;;;9.30;;
6463;SDS011;3265;42.694;23.282;2023-05-18T05:12:27;13.80;;;9.20;;
6463;SDS011;3265;42.694;23.282;2023-05-18T05:14:54;15.60;;;8.53;;
6463;SDS011;3265;42.694;23.282;2023-05-18T05:17:21;11.37;;;8.47;;
6463;SDS011;3265;42.694;23.282;2023-05-18T05:19:49;11.97;;;8.20;;
6463;SDS011;3265;42.694;23.282;2023-05-18T05:22:16;11.40;;;8.50;;
6463;SDS011;3265;42.694;23.282;2023-05-18T05:24:45;11.50;;;8.93;;
6463;SDS011;3265;42.694;23.282;2023-05-18T05:27:12;11.60;;;9.07;;
6463;SDS011;3265;42.694;23.282;2023-05-18T05:29:38;10.07;;;8.07;;
6463;SDS011;3265;42.694;23.282;2023-05-18T05:32:06;11.23;;;8.90;;
6463;SDS011;3265;42.694;23.282;2023-05-18T05:34:33;11.77;;;8.40;;
6463;SDS011;3265;42.694;23.282;2023-05-18T05:37:00;10.77;;;8.47;;
6463;SDS011;3265;42.694;23.282;2023-05-18T05:39:26;13.03;;;8.40;;
6463;SDS011;3265;42.694;23.282;2023-05-18T05:41:55;15.27;;;9.07;;
6463;SDS011;3265;42.694;23.282;2023-05-18T05:44:21;14.53;;;11.20;;
6463;SDS011;3265;42.694;23.282;2023-05-18T05:46:48;16.17;;;12.57;;
6463;SDS011;3265;42.694;23.282;2023-05-18T05:49:15;14.27;;;10.90;;
6463;SDS011;3265;42.694;23.282;2023-05-18T05:51:42;12.43;;;9.73;;
6463;SDS011;3265;42.694;23.282;2023-05-18T05:54:09;14.83;;;10.83;;
6463;SDS011;3265;42.694;23.282;2023-05-18T05:56:36;15.80;;;11.53;;
6463;SDS011;3265;42.694;23.282;2023-05-18T05:59:04;23.77;;;14.67;;
6463;SDS011;3265;42.694;23.282;2023-05-18T06:01:31;22.17;;;15.27;;
6463;SDS011;3265;42.694;23.282;2023-05-18T06:03:58;22.20;;;15.57;;
6463;SDS011;3265;42.694;23.282;2023-05-18T06:06:26;13.63;;;9.03;;
6463;SDS011;3265;42.694;23.282;2023-05-18T06:08:54;12.37;;;8.73;;
6463;SDS011;3265;42.694;23.282;2023-05-18T06:11:21;10.33;;;7.10;;
6463;SDS011;3265;42.694;23.282;2023-05-18T06:13:51;9.30;;;7.13;;
6463;SDS011;3265;42.694;23.282;2023-05-18T06:16:19;15.63;;;7.97;;
6463;SDS011;3265;42.694;23.282;2023-05-18T06:18:47;12.63;;;8.23;;
6463;SDS011;3265;42.694;23.282;2023-05-18T06:21:14;11.17;;;8.53;;
6463;SDS011;3265;42.694;23.282;2023-05-18T06:23:42;9.97;;;7.23;;
6463;SDS011;3265;42.694;23.282;2023-05-18T06:26:09;13.63;;;7.37;;
6463;SDS011;3265;42.694;23.282;2023-05-18T06:28:36;10.40;;;7.40;;
6463;SDS011;3265;42.694;23.282;2023-05-18T06:31:03;9.03;;;7.20;;
6463;SDS011;3265;42.694;23.282;2023-05-18T06:33:32;9.87;;;7.47;;
6463;SDS011;3265;42.694;23.282;2023-05-18T06:35:59;11.33;;;7.40;;
6463;SDS011;3265;42.694;23.282;2023-05-18T06:38:26;8.60;;;5.80;;
6463;SDS011;3265;42.694;23.282;2023-05-18T06:40:55;9.57;;;6.80;;
6463;SDS011;3265;42.694;23.282;2023-05-18T06:43:22;13.53;;;9.73;;
6463;SDS011;3265;42.694;23.282;2023-05-18T06:45:51;24.20;;;15.80;;
6463;SDS011;3265;42.694;23.282;2023-05-18T06:48:17;24.40;;;20.13;;
6463;SDS011;3265;42.694;23.282;2023-05-18T06:50:46;29.30;;;22.23;;
6463;SDS011;3265;42.694;23.282;2023-05-18T06:53:13;20.63;;;14.13;;
6463;SDS011;3265;42.694;23.282;2023-05-18T06:55:40;12.97;;;10.10;;
6463;SDS011;3265;42.694;23.282;2023-05-18T06:58:06;16.60;;;10.43;;
6463;SDS011;3265;42.694;23.282;2023-05-18T07:00:33;14.63;;;10.03;;
6463;SDS011;3265;42.694;23.282;2023-05-18T07:03:00;17.93;;;13.07;;
6463;SDS011;3265;42.694;23.282;2023-05-18T07:05:27;17.47;;;13.90;;
6463;SDS011;3265;42.694;23.282;2023-05-18T07:08:04;18.70;;;12.70;;
6463;SDS011;3265;42.694;23.282;2023-05-18T07:10:43;18.17;;;13.50;;
6463;SDS011;3265;42.694;23.282;2023-05-18T07:13:10;15.37;;;11.80;;
6463;SDS011;3265;42.694;23.282;2023-05-18T07:15:37;15.33;;;12.00;;
6463;SDS011;3265;42.694;23.282;2023-05-18T07:18:04;14.43;;;10.90;;
6463;SDS011;3265;42.694;23.282;2023-05-18T07:20:31;15.00;;;10.43;;
6463;SDS011;3265;42.694;23.282;2023-05-18T07:22:58;16.97;;;10.47;;
6463;SDS011;3265;42.694;23.282;2023-05-18T07:25:26;14.67;;;10.53;;
6463;SDS011;3265;42.694;23.282;2023-05-18T07:27:53;14.07;;;10.50;;
6463;SDS011;3265;42.694;23.282;2023-05-18T07:30:20;16.70;;;11.27;;
6463;SDS011;3265;42.694;23.282;2023-05-18T07:32:48;17.53;;;11.67;;
6463;SDS011;3265;42.694;23.282;2023-05-18T07:35:15;18.07;;;12.03;;
6463;SDS011;3265;42.694;23.282;2023-05-18T07:37:43;18.70;;;12.30;;
6463;SDS011;3265;42.694;23.282;2023-05-18T07:40:10;16.53;;;12.33;;
6463;SDS011;3265;42.694;23.282;2023-05-18T07:42:39;18.67;;;12.03;;
6463;SDS011;3265;42.694;23.282;2023-05-18T07:45:07;20.17;;;11.87;;
6463;SDS011;3265;42.694;23.282;2023-05-18T07:47:34;16.97;;;12.37;;
6463;SDS011;3265;42.694;23.282;2023-05-18T07:50:02;20.23;;;11.50;;
6463;SDS011;3265;42.694;23.282;2023-05-18T07:52:29;15.07;;;11.07;;
6463;SDS011;3265;42.694;23.282;2023-05-18T07:54:56;18.27;;;11.27;;
6463;SDS011;3265;42.694;23.282;2023-05-18T07:57:23;17.70;;;11.73;;
6463;SDS011;3265;42.694;23.282;2023-05-18T07:59:51;18.37;;;11.53;;
6463;SDS011;3265;42.694;23.282;2023-05-18T08:02:18;17.30;;;11.70;;
6463;SDS011;3265;42.694;23.282;2023-05-18T08:04:45;19.57;;;12.73;;
6463;SDS011;3265;42.694;23.282;2023-05-18T08:07:12;20.50;;;12.57;;
6463;SDS011;3265;42.694;23.282;2023-05-18T08:09:39;17.90;;;12.43;;
6463;SDS011;3265;42.694;23.282;2023-05-18T08:12:06;18.77;;;12.80;;
6463;SDS011;3265;42.694;23.282;2023-05-18T08:14:33;16.33;;;11.97;;
6463;SDS011;3265;42.694;23.282;2023-05-18T08:17:02;18.23;;;11.83;;
6463;SDS011;3265;42.694;23.282;2023-05-18T08:19:29;18.70;;;12.07;;
6463;SDS011;3265;42.694;23.282;2023-05-18T08:21:55;23.50;;;13.20;;
6463;SDS011;3265;42.694;23.282;2023-05-18T08:24:22;17.87;;;12.83;;
6463;SDS011;3265;42.694;23.282;2023-05-18T08:26:49;20.80;;;13.80;;
6463;SDS011;3265;42.694;23.282;2023-05-18T08:29:16;25.10;;;13.37;;
6463;SDS011;3265;42.694;23.282;2023-05-18T08:31:43;19.77;;;13.40;;
6463;SDS011;3265;42.694;23.282;2023-05-18T08:34:12;17.63;;;12.07;;
6463;SDS011;3265;42.694;23.282;2023-05-18T08:36:39;23.23;;;13.23;;
6463;SDS011;3265;42.694;23.282;2023-05-18T08:39:08;21.03;;;12.63;;
6463;SDS011;3265;42.694;23.282;2023-05-18T08:41:37;14.57;;;11.83;;
6463;SDS011;3265;42.694;23.282;2023-05-18T08:44:13;23.93;;;12.60;;
6463;SDS011;3265;42.694;23.282;2023-05-18T08:46:44;18.97;;;11.20;;
6463;SDS011;3265;42.694;23.282;2023-05-18T08:49:14;18.50;;;11.47;;
6463;SDS011;3265;42.694;23.282;2023-05-18T08:51:44;15.30;;;9.43;;
6463;SDS011;3265;42.694;23.282;2023-05-18T08:54:14;13.40;;;9.67;;
6463;SDS011;3265;42.694;23.282;2023-05-18T08:56:46;16.83;;;9.57;;
6463;SDS011;3265;42.694;23.282;2023-05-18T08:59:18;18.20;;;10.27;;
6463;SDS011;3265;42.694;23.282;2023-05-18T09:01:54;16.00;;;9.53;;
6463;SDS011;3265;42.694;23.282;2023-05-18T09:04:25;15.50;;;9.53;;
6463;SDS011;3265;42.694;23.282;2023-05-18T09:06:53;17.80;;;10.40;;
6463;SDS011;3265;42.694;23.282;2023-05-18T09:09:21;16.63;;;9.93;;
6463;SDS011;3265;42.694;23.282;2023-05-18T09:11:49;17.93;;;10.63;;
6463;SDS011;3265;42.694;23.282;2023-05-18T09:14:17;18.50;;;10.90;;
6463;SDS011;3265;42.694;23.282;2023-05-18T09:16:46;13.43;;;10.73;;
6463;SDS011;3265;42.694;23.282;2023-05-18T09:19:13;21.33;;;10.53;;
6463;SDS011;3265;42.694;23.282;2023-05-18T09:21:41;17.33;;;11.23;;
6463;SDS011;3265;42.694;23.282;2023-05-18T09:24:08;18.83;;;11.57;;
6463;SDS011;3265;42.694;23.282;2023-05-18T09:26:35;19.67;;;11.27;;
6463;SDS011;3265;42.694;23.282;2023-05-18T09:29:13;17.07;;;11.33;;
6463;SDS011;3265;42.694;23.282;2023-05-18T09:31:41;16.63;;;12.10;;
6463;SDS011;3265;42.694;23.282;2023-05-18T09:34:15;21.60;;;12.13;;
6463;SDS011;3265;42.694;23.282;2023-05-18T09:36:50;18.43;;;11.50;;
6463;SDS011;3265;42.694;23.282;2023-05-18T09:39:18;22.97;;;13.17;;
6463;SDS011;3265;42.694;23.282;2023-05-18T09:41:44;15.63;;;11.50;;
6463;SDS011;3265;42.694;23.282;2023-05-18T09:44:11;19.87;;;12.37;;
6463;SDS011;3265;42.694;23.282;2023-05-18T09:46:39;17.60;;;13.00;;
6463;SDS011;3265;42.694;23.282;2023-05-18T09:49:08;19.53;;;13.43;;
6463;SDS011;3265;42.694;23.282;2023-05-18T09:51:36;17.00;;;11.00;;
6463;SDS011;3265;42.694;23.282;2023-05-18T09:54:06;19.83;;;10.97;;
6463;SDS011;3265;42.694;23.282;2023-05-18T09:56:34;15.23;;;11.03;;
6463;SDS011;3265;42.694;23.282;2023-05-18T09:59:08;15.93;;;11.27;;
6463;SDS011;3265;42.694;23.282;2023-05-18T10:01:36;15.90;;;10.93;;
6463;SDS011;3265;42.694;23.282;2023-05-18T10:04:05;20.13;;;12.37;;
6463;SDS011;3265;42.694;23.282;2023-05-18T10:06:32;22.47;;;10.80;;
6463;SDS011;3265;42.694;23.282;2023-05-18T10:09:00;18.33;;;10.77;;
6463;SDS011;3265;42.694;23.282;2023-05-18T10:11:31;14.87;;;10.47;;
6463;SDS011;3265;42.694;23.282;2023-05-18T10:13:58;16.37;;;10.70;;
6463;SDS011;3265;42.694;23.282;2023-05-18T10:16:25;13.50;;;9.87;;
6463;SDS011;3265;42.694;23.282;2023-05-18T10:18:53;18.90;;;10.80;;
6463;SDS011;3265;42.694;23.282;2023-05-18T10:21:20;22.20;;;11.00;;
6463;SDS011;3265;42.694;23.282;2023-05-18T10:23:53;19.23;;;10.77;;
6463;SDS011;3265;42.694;23.282;2023-05-18T10:26:21;18.83;;;10.93;;
6463;SDS011;3265;42.694;23.282;2023-05-18T10:28:52;18.93;;;10.67;;
6463;SDS011;3265;42.694;23.282;2023-05-18T10:31:22;21.80;;;10.47;;
6463;SDS011;3265;42.694;23.282;2023-05-18T10:33:51;17.93;;;10.17;;
6463;SDS011;3265;42.694;23.282;2023-05-18T10:36:18;15.33;;;10.13;;
6463;SDS011;3265;42.694;23.282;2023-05-18T10:38:49;15.33;;;10.83;;
6463;SDS011;3265;42.694;23.282;2023-05-18T10:41:17;14.47;;;9.93;;
6463;SDS011;3265;42.694;23.282;2023-05-18T10:43:47;15.07;;;9.47;;
6463;SDS011;3265;42.694;23.282;2023-05-18T10:46:16;14.97;;;10.23;;
6463;SDS011;3265;42.694;23.282;2023-05-18T10:48:45;16.97;;;9.87;;
6463;SDS011;3265;42.694;23.282;2023-05-18T10:51:16;15.23;;;10.10;;
6463;SDS011;3265;42.694;23.282;2023-05-18T10:53:45;16.37;;;10.50;;
6463;SDS011;3265;42.694;23.282;2023-05-18T10:56:12;13.83;;;9.33;;
6463;SDS011;3265;42.694;23.282;2023-05-18T10:58:41;10.50;;;9.20;;
6463;SDS011;3265;42.694;23.282;2023-05-18T11:01:09;20.13;;;10.60;;
6463;SDS011;3265;42.694;23.282;2023-05-18T11:03:39;15.70;;;10.63;;
6463;SDS011;3265;42.694;23.282;2023-05-18T11:06:06;20.83;;;11.77;;
6463;SDS011;3265;42.694;23.282;2023-05-18T11:08:43;15.30;;;10.57;;
6463;SDS011;3265;42.694;23.282;2023-05-18T11:11:33;19.37;;;10.90;;
6463;SDS011;3265;42.694;23.282;2023-05-18T11:14:16;12.83;;;10.00;;
6463;SDS011;3265;42.694;23.282;2023-05-18T11:16:51;18.23;;;10.67;;
6463;SDS011;3265;42.694;23.282;2023-05-18T11:19:19;17.17;;;10.43;;
6463;SDS011;3265;42.694;23.282;2023-05-18T11:21:50;16.23;;;11.13;;
6463;SDS011;3265;42.694;23.282;2023-05-18T11:24:19;19.37;;;10.80;;
6463;SDS011;3265;42.694;23.282;2023-05-18T11:26:48;16.67;;;10.37;;
6463;SDS011;3265;42.694;23.282;2023-05-18T11:29:17;19.10;;;9.27;;
6463;SDS011;3265;42.694;23.282;2023-05-18T11:31:45;13.20;;;9.10;;
6463;SDS011;3265;42.694;23.282;2023-05-18T11:37:06;15.77;;;9.97;;
6463;SDS011;3265;42.694;23.282;2023-05-18T11:39:34;14.17;;;10.23;;
6463;SDS011;3265;42.694;23.282;2023-05-18T11:42:01;15.77;;;10.33;;
6463;SDS011;3265;42.694;23.282;2023-05-18T11:44:32;13.83;;;9.30;;
6463;SDS011;3265;42.694;23.282;2023-05-18T11:47:00;11.23;;;7.67;;
6463;SDS011;3265;42.694;23.282;2023-05-18T11:49:28;13.20;;;8.07;;
6463;SDS011;3265;42.694;23.282;2023-05-18T11:51:59;12.77;;;8.00;;
6463;SDS011;3265;42.694;23.282;2023-05-18T11:54:36;15.57;;;7.90;;
6463;SDS011;3265;42.694;23.282;2023-05-18T11:57:06;15.80;;;7.57;;
6463;SDS011;3265;42.694;23.282;2023-05-18T11:59:35;9.43;;;6.07;;
6463;SDS011;3265;42.694;23.282;2023-05-18T12:02:03;8.40;;;6.00;;
6463;SDS011;3265;42.694;23.282;2023-05-18T12:04:33;9.27;;;6.77;;
6463;SDS011;3265;42.694;23.282;2023-05-18T12:07:04;11.30;;;7.00;;
6463;SDS011;3265;42.694;23.282;2023-05-18T12:09:32;11.93;;;6.60;;
6463;SDS011;3265;42.694;23.282;2023-05-18T12:11:59;9.53;;;6.30;;
6463;SDS011;3265;42.694;23.282;2023-05-18T12:14:29;10.10;;;6.23;;
6463;SDS011;3265;42.694;23.282;2023-05-18T12:16:57;9.00;;;6.37;;
6463;SDS011;3265;42.694;23.282;2023-05-18T12:19:25;9.90;;;6.23;;
6463;SDS011;3265;42.694;23.282;2023-05-18T12:21:52;7.93;;;6.07;;
6463;SDS011;3265;42.694;23.282;2023-05-18T12:24:23;8.77;;;5.57;;
6463;SDS011;3265;42.694;23.282;2023-05-18T12:26:58;8.10;;;5.37;;
6463;SDS011;3265;42.694;23.282;2023-05-18T12:29:28;8.00;;;5.27;;
6463;SDS011;3265;42.694;23.282;2023-05-18T12:31:55;10.60;;;5.43;;
6463;SDS011;3265;42.694;23.282;2023-05-18T12:34:26;7.63;;;5.03;;
6463;SDS011;3265;42.694;23.282;2023-05-18T12:36:53;8.33;;;5.33;;
6463;SDS011;3265;42.694;23.282;2023-05-18T12:39:23;7.97;;;5.20;;
6463;SDS011;3265;42.694;23.282;2023-05-18T12:41:50;8.20;;;5.60;;
6463;SDS011;3265;42.694;23.282;2023-05-18T12:44:17;5.90;;;5.07;;
6463;SDS011;3265;42.694;23.282;2023-05-18T12:46:44;8.73;;;5.20;;
6463;SDS011;3265;42.694;23.282;2023-05-18T12:49:11;7.97;;;5.83;;
6463;SDS011;3265;42.694;23.282;2023-05-18T12:51:38;7.47;;;5.80;;
6463;SDS011;3265;42.694;23.282;2023-05-18T12:54:05;11.97;;;5.97;;
6463;SDS011;3265;42.694;23.282;2023-05-18T12:56:49;11.37;;;5.93;;
6463;SDS011;3265;42.694;23.282;2023-05-18T12:59:23;8.17;;;5.37;;
6463;SDS011;3265;42.694;23.282;2023-05-18T13:01:51;9.27;;;5.90;;
6463;SDS011;3265;42.694;23.282;2023-05-18T13:04:18;10.23;;;5.90;;
6463;SDS011;3265;42.694;23.282;2023-05-18T13:06:45;7.40;;;5.23;;
6463;SDS011;3265;42.694;23.282;2023-05-18T13:09:12;5.47;;;4.97;;
6463;SDS011;3265;42.694;23.282;2023-05-18T13:11:40;5.77;;;4.90;;
6463;SDS011;3265;42.694;23.282;2023-05-18T13:14:13;9.20;;;4.67;;
6463;SDS011;3265;42.694;23.282;2023-05-18T13:16:48;7.80;;;4.30;;
6463;SDS011;3265;42.694;23.282;2023-05-18T13:19:16;7.67;;;4.77;;
6463;SDS011;3265;42.694;23.282;2023-05-18T13:21:43;5.33;;;4.10;;
6463;SDS011;3265;42.694;23.282;2023-05-18T13:24:21;7.67;;;4.70;;
6463;SDS011;3265;42.694;23.282;2023-05-18T13:26:48;6.80;;;4.83;;
6463;SDS011;3265;42.694;23.282;2023-05-18T13:29:19;6.90;;;5.30;;
6463;SDS011;3265;42.694;23.282;2023-05-18T13:31:52;8.97;;;5.60;;
6463;SDS011;3265;42.694;23.282;2023-05-18T13:34:19;7.50;;;4.50;;
6463;SDS011;3265;42.694;23.282;2023-05-18T13:36:46;10.40;;;5.40;;
6463;SDS011;3265;42.694;23.282;2023-05-18T13:39:13;7.03;;;5.30;;
6463;SDS011;3265;42.694;23.282;2023-05-18T13:41:40;7.20;;;4.67;;
6463;SDS011;3265;42.694;23.282;2023-05-18T13:44:06;7.10;;;4.60;;
6463;SDS011;3265;42.694;23.282;2023-05-18T13:46:35;8.60;;;4.90;;
6463;SDS011;3265;42.694;23.282;2023-05-18T13:49:01;8.10;;;5.27;;
6463;SDS011;3265;42.694;23.282;2023-05-18T13:51:28;8.23;;;5.07;;
6463;SDS011;3265;42.694;23.282;2023-05-18T13:53:55;6.53;;;4.90;;
6463;SDS011;3265;42.694;23.282;2023-05-18T13:56:22;7.07;;;4.43;;
6463;SDS011;3265;42.694;23.282;2023-05-18T13:58:48;6.63;;;4.30;;
6463;SDS011;3265;42.694;23.282;2023-05-18T14:01:15;5.00;;;4.10;;
6463;SDS011;3265;42.694;23.282;2023-05-18T14:03:44;5.33;;;4.17;;
6463;SDS011;3265;42.694;23.282;2023-05-18T14:06:11;11.70;;;4.80;;
6463;SDS011;3265;42.694;23.282;2023-05-18T14:08:37;7.83;;;4.80;;
6463;SDS011;3265;42.694;23.282;2023-05-18T14:11:04;8.00;;;5.07;;
6463;SDS011;3265;42.694;23.282;2023-05-18T14:13:31;8.00;;;5.57;;
6463;SDS011;3265;42.694;23.282;2023-05-18T14:15:58;7.23;;;4.93;;
6463;SDS011;3265;42.694;23.282;2023-05-18T14:18:25;6.93;;;4.63;;
6463;SDS011;3265;42.694;23.282;2023-05-18T14:20:53;6.27;;;4.60;;
6463;SDS011;3265;42.694;23.282;2023-05-18T14:23:24;7.00;;;4.60;;
6463;SDS011;3265;42.694;23.282;2023-05-18T14:25:51;5.83;;;4.40;;
6463;SDS011;3265;42.694;23.282;2023-05-18T14:28:18;5.27;;;4.37;;
6463;SDS011;3265;42.694;23.282;2023-05-18T14:30:45;6.50;;;4.47;;
6463;SDS011;3265;42.694;23.282;2023-05-18T14:33:11;8.37;;;4.73;;
6463;SDS011;3265;42.694;23.282;2023-05-18T14:35:38;6.10;;;4.53;;
6463;SDS011;3265;42.694;23.282;2023-05-18T14:38:06;6.57;;;4.40;;
6463;SDS011;3265;42.694;23.282;2023-05-18T14:40:33;8.10;;;4.33;;
6463;SDS011;3265;42.694;23.282;2023-05-18T14:43:00;7.83;;;5.00;;
6463;SDS011;3265;42.694;23.282;2023-05-18T14:45:27;8.20;;;5.27;;
6463;SDS011;3265;42.694;23.282;2023-05-18T14:47:53;8.77;;;4.50;;
6463;SDS011;3265;42.694;23.282;2023-05-18T14:50:20;13.00;;;5.53;;
6463;SDS011;3265;42.694;23.282;2023-05-18T14:52:47;8.07;;;5.57;;
6463;SDS011;3265;42.694;23.282;2023-05-18T14:55:15;9.73;;;5.70;;
6463;SDS011;3265;42.694;23.282;2023-05-18T14:57:42;8.37;;;5.63;;
6463;SDS011;3265;42.694;23.282;2023-05-18T15:00:09;11.43;;;7.03;;
6463;SDS011;3265;42.694;23.282;2023-05-18T15:02:37;8.57;;;6.67;;